Englewood, Illinois
Current Conditions -  °F | °C
As of 4:15 PM on Monday 24 Nov 2014 (Local Time) from KMDW Reporting Station
Light Snow Light Snow  
Wind Chill: 20°   Ceiling: 1400
Heat Index: 32°   Visibility: 9mi
Dew Point: 27°   Wind: 20mph
Humidity: 82%   Direction: 250°WSW
Pressure: 29.57"   Gusts: 26mph
Location:  41.7763°N, 87.6399°W
Report Text: KMDW 242215Z 25017G23KT 9SM -SN OVC014 00/M03 A2957 RMK AO2 PK WND 25038/2158 P0000 T00001028
Loading
Personal Weather Stations






























Interactive Weather Map New forecast layout! Learn more

10-Day Weather Forecast

Advertisements
Track Severe Weather on mobile